Aviation Digital Data Service (ADDS)

Output produced by METARs form (2014 UTC 26 November 2014)
found at http://aviationweather.gov/adds/metars/
 
KCLT 261903Z 2619/2718 32007KT P6SM BKN025 
     FM262100 28004KT P6SM SCT025 BKN040 
     FM270000 26004KT P6SM BKN040 
     FM270900 23004KT P6SM SCT025 OVC050 
     FM271600 30010G17KT P6SM SCT040